createdAt,value
2019-04-20T00:00:09.481Z,3.10
2019-04-20T00:01:05.548Z,2.80
2019-04-20T00:02:13.650Z,3.30
2019-04-20T00:03:07.679Z,3.00
2019-04-20T00:04:05.488Z,3.00
2019-04-20T00:05:05.434Z,3.00
2019-04-20T00:06:06.682Z,2.90
2019-04-20T00:07:06.001Z,2.90
2019-04-20T00:08:08.989Z,3.00
2019-04-20T00:09:12.236Z,3.10
2019-04-20T00:10:11.455Z,2.70
2019-04-20T00:11:14.254Z,3.30
2019-04-20T00:12:15.064Z,2.70
2019-04-20T00:13:20.606Z,3.00
2019-04-20T00:14:13.782Z,3.00
2019-04-20T00:15:06.990Z,3.30
2019-04-20T00:16:06.234Z,2.90
2019-04-20T00:17:05.312Z,3.10
2019-04-20T00:18:07.149Z,3.10
2019-04-20T00:19:07.047Z,2.80
2019-04-20T00:20:15.512Z,3.30
2019-04-20T00:21:11.006Z,2.90
2019-04-20T00:22:10.118Z,2.90
2019-04-20T00:23:06.239Z,3.10
2019-04-20T00:24:09.174Z,3.00
2019-04-20T00:25:10.459Z,3.20
2019-04-20T00:26:14.866Z,3.20
2019-04-20T00:27:26.250Z,3.00
2019-04-20T00:28:25.486Z,2.90
2019-04-20T00:29:24.889Z,3.00
2019-04-20T00:30:28.769Z,3.10
2019-04-20T00:31:23.440Z,3.10
2019-04-20T00:32:14.633Z,3.20
2019-04-20T00:33:21.596Z,2.90
2019-04-20T00:34:13.926Z,3.10
2019-04-20T00:35:06.333Z,3.00
2019-04-20T00:36:05.345Z,3.20
2019-04-20T00:37:05.879Z,3.20
2019-04-20T00:38:05.672Z,3.20
2019-04-20T00:39:08.098Z,3.20
2019-04-20T00:40:06.020Z,3.20
2019-04-20T00:41:08.928Z,3.20
2019-04-20T00:42:09.691Z,2.90
2019-04-20T00:43:06.667Z,3.60
2019-04-20T00:44:12.331Z,2.80
2019-04-20T00:45:14.116Z,3.20
2019-04-20T00:46:18.276Z,3.20
2019-04-20T00:47:15.847Z,3.00
2019-04-20T00:48:19.027Z,3.00
2019-04-20T00:49:22.908Z,3.30
2019-04-20T00:50:25.910Z,3.00
2019-04-20T00:51:24.111Z,3.10
2019-04-20T00:53:17.960Z,3.60
2019-04-20T00:54:07.237Z,3.20
2019-04-20T00:55:06.265Z,3.00
2019-04-20T00:56:05.482Z,3.30
2019-04-20T00:57:13.554Z,3.30
2019-04-20T00:58:18.061Z,2.90
2019-04-20T00:59:17.111Z,3.00
2019-04-20T01:00:23.103Z,3.10
2019-04-20T01:01:25.159Z,3.20
2019-04-20T01:02:21.037Z,3.00
2019-04-20T01:03:23.309Z,3.30
2019-04-20T01:04:26.977Z,3.40
2019-04-20T01:05:23.950Z,3.10
2019-04-20T01:06:22.238Z,3.00
2019-04-20T01:07:15.510Z,3.40
2019-04-20T01:08:06.939Z,3.00
2019-04-20T01:09:05.454Z,3.70
2019-04-20T01:10:05.297Z,3.20
2019-04-20T01:11:06.009Z,3.20
2019-04-20T01:12:09.998Z,3.20
2019-04-20T01:13:11.697Z,3.20
2019-04-20T01:14:09.578Z,3.10
2019-04-20T01:15:09.132Z,3.20
2019-04-20T01:16:18.517Z,3.10
2019-04-20T01:17:11.775Z,3.10
2019-04-20T01:18:05.602Z,3.10
2019-04-20T01:19:04.585Z,3.50
2019-04-20T01:20:04.571Z,3.10
2019-04-20T01:21:10.691Z,3.40
2019-04-20T01:22:12.466Z,3.70
2019-04-20T01:23:10.126Z,3.30
2019-04-20T01:24:08.419Z,3.30
2019-04-20T01:25:13.810Z,3.20
2019-04-20T01:26:10.886Z,3.10
2019-04-20T01:27:10.931Z,3.30
2019-04-20T01:28:25.037Z,3.70
2019-04-20T01:29:16.965Z,2.90
2019-04-20T01:30:14.755Z,3.40
2019-04-20T01:31:15.777Z,3.20
2019-04-20T01:32:15.429Z,3.00
2019-04-20T01:33:24.441Z,3.40
2019-04-20T01:34:22.406Z,3.30
2019-04-20T01:35:27.571Z,3.30
2019-04-20T01:36:27.889Z,3.50
2019-04-20T01:37:21.229Z,3.10
2019-04-20T01:38:22.385Z,3.50
2019-04-20T01:39:13.606Z,3.30
2019-04-20T01:40:07.768Z,3.50
2019-04-20T01:41:05.424Z,3.20
2019-04-20T01:42:04.617Z,3.40
2019-04-20T01:43:05.582Z,3.10
2019-04-20T01:44:05.060Z,3.00
2019-04-20T01:45:10.364Z,3.30
2019-04-20T01:46:12.198Z,3.30
2019-04-20T01:47:07.138Z,3.20
2019-04-20T01:48:05.164Z,3.30
2019-04-20T01:49:10.493Z,3.40
2019-04-20T01:50:11.348Z,3.40
2019-04-20T01:51:11.778Z,3.20
2019-04-20T01:52:13.030Z,3.40
2019-04-20T01:53:16.511Z,3.40
2019-04-20T01:54:21.368Z,3.30
2019-04-20T01:55:23.028Z,3.20
2019-04-20T01:56:18.103Z,3.40
2019-04-20T01:57:13.821Z,3.30
2019-04-20T01:58:25.392Z,3.40
2019-04-20T01:59:19.499Z,3.30
2019-04-20T02:00:11.396Z,3.20
2019-04-20T02:01:11.720Z,3.40
2019-04-20T02:02:09.944Z,3.40
2019-04-20T02:03:05.611Z,2.90
2019-04-20T02:04:06.428Z,3.50
2019-04-20T02:05:08.784Z,3.30
2019-04-20T02:06:09.998Z,3.30
2019-04-20T02:07:06.929Z,3.30
2019-04-20T02:08:08.750Z,3.20
2019-04-20T02:09:13.019Z,3.20
2019-04-20T02:10:08.307Z,3.30
2019-04-20T02:11:07.586Z,3.60
2019-04-20T02:12:11.133Z,3.50
2019-04-20T02:13:06.630Z,3.30
2019-04-20T02:14:07.375Z,3.40
2019-04-20T02:15:07.203Z,3.30
2019-04-20T02:16:11.376Z,3.40
2019-04-20T02:17:18.057Z,3.50
2019-04-20T02:18:20.578Z,3.60
2019-04-20T02:19:19.840Z,3.20
2019-04-20T02:20:22.855Z,3.60
2019-04-20T02:21:22.372Z,3.30
2019-04-20T02:22:17.294Z,3.40
2019-04-20T02:23:17.349Z,3.50
2019-04-20T02:24:08.938Z,3.30
2019-04-20T02:25:05.845Z,3.50
2019-04-20T02:26:04.994Z,3.60
2019-04-20T02:27:04.187Z,3.30
2019-04-20T02:28:22.832Z,3.40
2019-04-20T02:29:32.465Z,3.40
2019-04-20T02:30:45.013Z,3.50
2019-04-20T02:31:45.627Z,3.50
2019-04-20T02:32:26.645Z,3.50
2019-04-20T02:33:44.445Z,3.40
2019-04-20T02:34:42.754Z,3.60
2019-04-20T02:35:42.622Z,3.50
2019-04-20T02:36:51.135Z,3.10
2019-04-20T02:37:53.849Z,3.20
2019-04-20T02:38:48.917Z,3.60
2019-04-20T02:39:45.329Z,3.30
2019-04-20T02:43:46.862Z,3.40
2019-04-20T02:46:44.777Z,3.20
2019-04-20T02:47:40.381Z,3.30
2019-04-20T02:48:39.383Z,3.30
2019-04-20T02:49:52.410Z,3.30
2019-04-20T02:50:41.694Z,3.50
2019-04-20T02:51:41.934Z,3.70
2019-04-20T02:53:44.383Z,3.40
2019-04-20T02:54:40.374Z,3.40
2019-04-20T02:56:40.236Z,3.50
2019-04-20T02:57:44.184Z,3.40
2019-04-20T02:58:41.725Z,3.50
2019-04-20T03:00:29.846Z,3.60
2019-04-20T03:01:29.132Z,3.30
2019-04-20T03:02:23.768Z,3.40
2019-04-20T03:03:17.269Z,3.30
2019-04-20T03:04:16.261Z,3.30
2019-04-20T03:05:16.423Z,3.50
2019-04-20T03:06:17.256Z,3.30
2019-04-20T03:07:19.155Z,3.20
2019-04-20T03:08:22.334Z,3.20
2019-04-20T03:09:26.919Z,3.40
2019-04-20T03:10:23.688Z,3.20
2019-04-20T03:11:31.725Z,3.40
2019-04-20T03:12:29.206Z,3.40
2019-04-20T03:13:27.076Z,3.40
2019-04-20T03:14:23.979Z,3.50
2019-04-20T03:15:31.424Z,3.70
2019-04-20T03:16:25.179Z,3.40
2019-04-20T03:17:29.689Z,3.70
2019-04-20T03:18:25.272Z,3.40
2019-04-20T03:19:20.707Z,3.30
2019-04-20T03:20:31.669Z,3.50
2019-04-20T03:21:24.590Z,4.00
2019-04-20T03:22:29.108Z,3.50
2019-04-20T03:23:29.825Z,3.50
2019-04-20T03:24:31.094Z,3.60
2019-04-20T03:25:22.641Z,3.50
2019-04-20T03:26:21.466Z,3.40
2019-04-20T03:27:19.539Z,3.50
2019-04-20T03:28:28.797Z,3.60
2019-04-20T03:29:18.309Z,3.40
2019-04-20T03:31:05.698Z,3.40
2019-04-20T03:31:45.041Z,3.40
2019-04-20T03:32:50.177Z,3.70
2019-04-20T03:33:43.456Z,3.60
2019-04-20T03:35:43.441Z,3.60
2019-04-20T03:36:47.247Z,3.20
2019-04-20T03:37:30.724Z,3.90
2019-04-20T03:38:21.436Z,3.70
2019-04-20T03:39:25.074Z,3.80
2019-04-20T03:40:17.625Z,3.70
2019-04-20T03:41:16.217Z,3.50
2019-04-20T03:42:05.672Z,3.40
2019-04-20T03:43:03.820Z,3.90
2019-04-20T03:44:08.954Z,3.60
2019-04-20T03:45:09.350Z,3.40
2019-04-20T03:46:08.414Z,3.50
2019-04-20T03:47:08.822Z,3.50
2019-04-20T03:48:16.110Z,3.60
2019-04-20T03:49:22.713Z,3.50
2019-04-20T03:50:33.262Z,3.70
2019-04-20T03:51:30.336Z,3.50
2019-04-20T03:52:24.626Z,3.50
2019-04-20T03:53:22.982Z,3.90
2019-04-20T03:54:20.241Z,3.50
2019-04-20T03:55:24.236Z,4.10
2019-04-20T03:56:29.798Z,3.60
2019-04-20T03:57:26.636Z,3.70
2019-04-20T03:58:24.125Z,4.10
2019-04-20T03:59:17.440Z,3.80
2019-04-20T04:00:22.107Z,3.50
2019-04-20T04:01:32.584Z,3.90
2019-04-20T04:03:29.015Z,3.80
2019-04-20T04:04:27.249Z,3.90
2019-04-20T04:05:19.394Z,3.80
2019-04-20T04:06:16.241Z,3.50
2019-04-20T04:07:15.391Z,3.60
2019-04-20T04:08:14.896Z,4.00
2019-04-20T04:09:19.241Z,3.90
2019-04-20T04:10:15.802Z,3.70
2019-04-20T04:11:23.135Z,3.60
2019-04-20T04:12:15.248Z,3.50
2019-04-20T04:13:04.823Z,3.90
2019-04-20T04:14:03.028Z,3.90
2019-04-20T04:15:03.864Z,3.80
2019-04-20T04:16:07.912Z,3.90
2019-04-20T04:17:04.620Z,4.00
2019-04-20T04:18:07.784Z,3.90
2019-04-20T04:19:15.380Z,4.00
2019-04-20T04:20:10.108Z,4.10
2019-04-20T04:21:08.389Z,3.70
2019-04-20T04:22:15.844Z,4.20
2019-04-20T04:23:19.178Z,3.70
2019-04-20T04:24:16.978Z,3.70
2019-04-20T04:25:18.669Z,3.50
2019-04-20T04:26:21.970Z,4.00
2019-04-20T04:27:22.420Z,3.90
2019-04-20T04:28:19.488Z,4.10
2019-04-20T04:29:25.759Z,4.00
2019-04-20T04:30:20.704Z,3.90
2019-04-20T04:31:23.260Z,4.20
2019-04-20T04:32:37.837Z,4.10
2019-04-20T04:34:25.040Z,3.90
2019-04-20T04:35:16.786Z,3.90
2019-04-20T04:36:18.184Z,4.40
2019-04-20T04:38:28.946Z,3.90
2019-04-20T04:39:25.240Z,4.00
2019-04-20T04:40:32.399Z,4.00
2019-04-20T04:41:37.978Z,3.90
2019-04-20T04:42:34.175Z,4.10
2019-04-20T04:43:22.108Z,4.00
2019-04-20T04:44:19.214Z,4.20
2019-04-20T04:45:09.138Z,4.00
2019-04-20T04:46:03.900Z,3.80
2019-04-20T04:47:05.245Z,4.00
2019-04-20T04:48:06.783Z,4.30
2019-04-20T04:49:11.736Z,3.90
2019-04-20T04:50:11.237Z,4.10
2019-04-20T04:51:10.432Z,4.20
2019-04-20T04:52:07.985Z,4.40
2019-04-20T04:53:10.086Z,4.20
2019-04-20T04:54:13.744Z,4.00
2019-04-20T04:55:16.185Z,4.00
2019-04-20T04:56:09.441Z,4.30
2019-04-20T04:57:03.407Z,4.20
2019-04-20T04:58:02.408Z,4.20
2019-04-20T04:59:02.382Z,4.30
2019-04-20T05:00:03.580Z,4.40
2019-04-20T05:01:11.769Z,4.40
2019-04-20T05:02:03.440Z,4.50
2019-04-20T05:03:13.484Z,4.40
2019-04-20T05:04:25.769Z,4.30
2019-04-20T05:05:26.973Z,4.70
2019-04-20T05:06:20.962Z,4.40
2019-04-20T05:07:16.603Z,4.50
2019-04-20T05:08:13.098Z,4.30
2019-04-20T05:09:06.006Z,4.40
2019-04-20T05:10:03.540Z,4.30
2019-04-20T05:11:02.688Z,4.20
2019-04-20T05:12:07.182Z,4.30
2019-04-20T05:13:03.030Z,4.40
2019-04-20T05:14:06.319Z,4.20
2019-04-20T05:15:10.144Z,4.30
2019-04-20T05:16:17.587Z,4.60
2019-04-20T05:17:20.690Z,4.40
2019-04-20T05:18:27.243Z,4.10
2019-04-20T05:19:23.462Z,3.90
2019-04-20T05:20:22.048Z,4.10
2019-04-20T05:21:23.035Z,4.20
2019-04-20T05:22:27.598Z,4.40
2019-04-20T05:23:19.477Z,4.20
2019-04-20T05:24:17.889Z,4.00
2019-04-20T05:25:22.636Z,4.40
2019-04-20T05:26:27.263Z,4.30
2019-04-20T05:27:26.053Z,4.20
2019-04-20T05:28:16.716Z,4.40
2019-04-20T05:29:10.525Z,4.20
2019-04-20T05:30:03.610Z,4.30
2019-04-20T05:31:06.023Z,4.10
2019-04-20T05:32:10.762Z,4.20
2019-04-20T05:33:08.331Z,4.30
2019-04-20T05:34:26.088Z,4.40
2019-04-20T05:35:26.790Z,3.90
2019-04-20T05:36:24.765Z,4.10
2019-04-20T05:37:27.440Z,4.30
2019-04-20T05:38:26.451Z,3.90
2019-04-20T05:39:26.823Z,4.20
2019-04-20T05:40:22.233Z,4.10
2019-04-20T05:41:21.846Z,3.80
2019-04-20T05:42:26.307Z,4.00
2019-04-20T05:43:20.590Z,4.10
2019-04-20T05:44:16.825Z,4.00
2019-04-20T05:45:20.566Z,4.20
2019-04-20T05:46:22.041Z,3.80
2019-04-20T05:47:21.501Z,4.30
2019-04-20T05:48:18.527Z,4.20
2019-04-20T05:49:26.891Z,4.50
2019-04-20T05:50:23.416Z,4.00
2019-04-20T05:51:33.380Z,4.00
2019-04-20T05:52:47.239Z,3.70
2019-04-20T05:53:26.428Z,4.60
2019-04-20T05:54:26.845Z,4.10
2019-04-20T05:56:26.745Z,4.10
2019-04-20T05:58:26.331Z,4.00
2019-04-20T05:59:19.184Z,3.90
2019-04-20T06:00:29.116Z,4.10
2019-04-20T06:01:25.886Z,4.40
2019-04-20T06:02:23.140Z,4.10
2019-04-20T06:03:23.363Z,4.00
2019-04-20T06:04:30.201Z,4.30
2019-04-20T06:05:23.899Z,4.30
2019-04-20T06:06:24.632Z,4.20
2019-04-20T06:07:27.151Z,4.20
2019-04-20T06:08:32.035Z,4.00
2019-04-20T06:10:30.394Z,4.30
2019-04-20T06:11:28.383Z,4.30
2019-04-20T06:12:25.483Z,4.50
2019-04-20T06:13:20.886Z,4.10
2019-04-20T06:14:10.378Z,4.10
2019-04-20T06:15:18.104Z,4.40
2019-04-20T06:16:17.902Z,4.40
2019-04-20T06:17:27.072Z,4.00
2019-04-20T06:18:16.737Z,4.10
2019-04-20T06:19:30.967Z,4.00
2019-04-20T06:20:27.221Z,4.40
2019-04-20T06:21:32.551Z,4.20
2019-04-20T06:23:25.720Z,4.00
2019-04-20T06:24:36.361Z,4.10
2019-04-20T06:25:40.827Z,4.20
2019-04-20T06:27:28.227Z,4.30
2019-04-20T06:28:19.823Z,3.90
2019-04-20T06:29:20.643Z,3.70
2019-04-20T06:30:21.453Z,4.10
2019-04-20T06:31:28.205Z,4.40
2019-04-20T06:32:27.160Z,4.60
2019-04-20T06:33:34.638Z,4.20
2019-04-20T06:34:30.479Z,4.10
2019-04-20T06:35:32.446Z,4.10
2019-04-20T06:36:29.421Z,3.90
2019-04-20T06:37:28.317Z,4.00
2019-04-20T06:38:42.270Z,3.90
2019-04-20T06:39:26.012Z,4.20
2019-04-20T06:40:43.134Z,3.70
2019-04-20T06:41:33.097Z,4.10
2019-04-20T06:42:18.077Z,3.80
2019-04-20T06:43:25.426Z,4.10
2019-04-20T06:44:30.822Z,4.10
2019-04-20T06:45:31.430Z,4.00
2019-04-20T06:46:22.536Z,4.20
2019-04-20T06:47:24.698Z,4.00
2019-04-20T06:48:30.849Z,4.20
2019-04-20T06:49:28.929Z,4.10
2019-04-20T06:50:18.209Z,3.90
2019-04-20T06:51:22.302Z,4.10
2019-04-20T06:52:43.869Z,3.90
2019-04-20T06:53:32.597Z,4.10
2019-04-20T06:54:13.417Z,4.10
2019-04-20T06:55:20.064Z,4.10
2019-04-20T06:56:25.192Z,4.00
2019-04-20T06:57:24.051Z,4.00
2019-04-20T06:58:41.972Z,4.20
2019-04-20T06:59:28.985Z,4.00
2019-04-20T07:00:18.306Z,4.00
2019-04-20T07:01:21.813Z,3.80
2019-04-20T07:02:33.713Z,4.10
2019-04-20T07:03:37.645Z,4.00
2019-04-20T07:04:40.296Z,4.30
2019-04-20T07:06:36.882Z,3.70
2019-04-20T07:07:27.957Z,3.70
2019-04-20T07:08:40.879Z,3.90
2019-04-20T07:09:35.024Z,4.20
2019-04-20T07:10:37.339Z,4.00
2019-04-20T07:11:23.884Z,4.10
2019-04-20T07:12:17.106Z,4.10
2019-04-20T07:13:15.406Z,4.20
2019-04-20T07:14:08.559Z,3.90
2019-04-20T07:15:18.920Z,4.20
2019-04-20T07:16:22.585Z,3.90
2019-04-20T07:17:33.352Z,3.80
2019-04-20T07:18:26.138Z,4.30
2019-04-20T07:19:22.647Z,4.30
2019-04-20T07:20:19.469Z,4.20
2019-04-20T07:21:37.561Z,3.80
2019-04-20T07:22:30.070Z,3.90
2019-04-20T07:23:29.402Z,4.20
2019-04-20T07:24:25.202Z,4.10
2019-04-20T07:25:24.447Z,4.30
2019-04-20T07:26:26.264Z,4.10
2019-04-20T07:27:22.923Z,3.90
2019-04-20T07:28:29.818Z,4.20
2019-04-20T07:29:26.052Z,4.00
2019-04-20T07:30:19.059Z,4.00
2019-04-20T07:31:20.533Z,4.00
2019-04-20T07:32:16.466Z,4.40
2019-04-20T07:33:21.701Z,3.90
2019-04-20T07:34:21.464Z,4.30
2019-04-20T07:35:26.275Z,3.80
2019-04-20T07:36:24.464Z,3.90
2019-04-20T07:39:21.615Z,3.90
2019-04-20T07:40:21.644Z,3.90
2019-04-20T07:41:29.387Z,3.90
2019-04-20T07:42:29.327Z,3.80
2019-04-20T07:43:19.797Z,4.10
2019-04-20T07:44:28.142Z,3.90
2019-04-20T07:45:26.099Z,4.10
2019-04-20T07:46:37.556Z,4.30
2019-04-20T07:47:32.475Z,4.00
2019-04-20T07:48:21.323Z,4.10
2019-04-20T07:49:22.489Z,4.00
2019-04-20T07:50:17.139Z,3.70
2019-04-20T07:51:09.346Z,3.80
2019-04-20T07:52:01.764Z,4.10
2019-04-20T07:53:16.801Z,3.90
2019-04-20T07:54:28.920Z,3.80
2019-04-20T07:56:28.365Z,3.90
2019-04-20T07:57:21.040Z,4.00
2019-04-20T07:58:12.178Z,4.00
2019-04-20T07:59:13.919Z,4.10
2019-04-20T08:00:26.259Z,3.80
2019-04-20T08:01:31.577Z,3.80
2019-04-20T08:02:32.133Z,3.50
2019-04-20T08:03:29.563Z,3.90
2019-04-20T08:04:20.879Z,3.90
2019-04-20T08:05:18.204Z,4.00
2019-04-20T08:06:07.693Z,3.80
2019-04-20T08:07:05.841Z,3.80
2019-04-20T08:08:18.454Z,3.90
2019-04-20T08:09:14.519Z,3.80
2019-04-20T08:10:06.392Z,3.90
2019-04-20T08:11:13.898Z,3.90
2019-04-20T08:12:25.630Z,3.90
2019-04-20T08:14:24.221Z,3.80
2019-04-20T08:15:32.439Z,3.50
2019-04-20T08:16:26.952Z,3.30
2019-04-20T08:17:48.484Z,3.80
2019-04-20T08:18:27.752Z,3.90
2019-04-20T08:19:19.942Z,4.20
2019-04-20T08:20:20.751Z,3.40
2019-04-20T08:21:22.804Z,3.40
2019-04-20T08:22:21.863Z,3.50
2019-04-20T08:23:25.514Z,3.80
2019-04-20T08:24:17.105Z,3.50
2019-04-20T08:25:14.215Z,3.60
2019-04-20T08:26:08.432Z,3.50
2019-04-20T08:27:05.939Z,3.20
2019-04-20T08:28:01.501Z,3.70
2019-04-20T08:29:03.909Z,3.90
2019-04-20T08:30:20.477Z,3.60
2019-04-20T08:31:17.810Z,3.80
2019-04-20T08:32:18.468Z,3.40
2019-04-20T08:33:23.159Z,3.60
2019-04-20T08:34:28.532Z,3.60
2019-04-20T08:35:26.892Z,3.60
2019-04-20T08:36:22.846Z,3.60
2019-04-20T08:37:17.534Z,3.60
2019-04-20T08:38:55.989Z,3.50
2019-04-20T08:39:38.063Z,3.40
2019-04-20T08:40:22.346Z,3.60
2019-04-20T08:41:18.188Z,3.50
2019-04-20T08:42:24.818Z,3.40
2019-04-20T08:43:37.911Z,3.30
2019-04-20T08:44:42.942Z,3.90
2019-04-20T08:45:24.168Z,3.40
2019-04-20T08:46:20.552Z,3.50
2019-04-20T08:47:27.823Z,3.10
2019-04-20T08:48:24.303Z,3.40
2019-04-20T08:49:26.391Z,3.50
2019-04-20T08:50:24.889Z,3.40
2019-04-20T08:51:19.443Z,3.50
2019-04-20T08:52:36.774Z,3.60
2019-04-20T08:54:18.778Z,3.70
2019-04-20T08:55:18.082Z,3.60
2019-04-20T08:56:14.288Z,3.20
2019-04-20T08:57:03.219Z,2.50
2019-04-20T08:57:59.970Z,3.50
2019-04-20T08:58:59.767Z,3.70
2019-04-20T09:00:01.478Z,3.30
2019-04-20T09:01:03.578Z,2.90
2019-04-20T09:02:06.033Z,2.60
2019-04-20T09:03:09.318Z,2.90
2019-04-20T09:04:10.833Z,2.90
2019-04-20T09:05:05.285Z,3.00
2019-04-20T09:06:09.767Z,2.70
2019-04-20T09:07:09.820Z,3.10
2019-04-20T09:08:09.263Z,2.80
2019-04-20T09:09:33.192Z,3.00
2019-04-20T09:10:24.272Z,2.80
2019-04-20T09:11:14.394Z,2.90
2019-04-20T09:12:18.037Z,3.40
2019-04-20T09:13:14.576Z,2.70
2019-04-20T09:14:02.615Z,2.70
2019-04-20T09:15:01.503Z,2.90
2019-04-20T09:15:59.934Z,3.20
2019-04-20T09:17:02.888Z,3.30
2019-04-20T09:18:03.776Z,3.10
2019-04-20T09:19:07.249Z,3.20
2019-04-20T09:20:09.560Z,3.10
2019-04-20T09:21:07.711Z,3.00
2019-04-20T09:22:12.171Z,2.90
2019-04-20T09:23:16.658Z,2.80
2019-04-20T09:24:30.540Z,2.80
2019-04-20T09:25:27.978Z,3.10
2019-04-20T09:26:15.981Z,3.00
2019-04-20T09:27:15.678Z,3.10
2019-04-20T09:28:11.739Z,2.80
2019-04-20T09:29:12.566Z,3.10
2019-04-20T09:30:16.089Z,2.90
2019-04-20T09:31:16.294Z,2.90
2019-04-20T09:32:21.573Z,2.90
2019-04-20T09:33:14.321Z,2.50
2019-04-20T09:34:16.307Z,2.70
2019-04-20T09:35:19.407Z,2.80
2019-04-20T09:36:13.925Z,2.90
2019-04-20T09:37:21.367Z,2.70
2019-04-20T09:38:18.068Z,3.30
2019-04-20T09:39:11.472Z,2.90
2019-04-20T09:40:16.105Z,3.00
2019-04-20T09:41:26.361Z,2.90
2019-04-20T09:42:01.424Z,2.50
2019-04-20T09:43:00.108Z,3.00
2019-04-20T09:43:58.831Z,3.00
2019-04-20T09:45:02.440Z,3.00
2019-04-20T09:46:03.605Z,2.60
2019-04-20T09:47:03.174Z,2.80
2019-04-20T09:48:00.152Z,2.60
2019-04-20T09:49:02.439Z,2.70
2019-04-20T09:50:18.567Z,2.80
2019-04-20T09:51:20.325Z,2.90
2019-04-20T09:52:14.528Z,2.90
2019-04-20T09:53:17.020Z,2.80
2019-04-20T09:54:18.598Z,3.00
2019-04-20T09:55:14.919Z,2.90
2019-04-20T09:56:15.751Z,2.80
2019-04-20T09:57:21.796Z,2.30
2019-04-20T09:58:12.674Z,2.60
2019-04-20T09:59:20.857Z,2.50
2019-04-20T10:00:16.854Z,2.50
2019-04-20T10:01:13.643Z,2.30
2019-04-20T10:02:06.790Z,2.50
2019-04-20T10:03:00.286Z,2.70
2019-04-20T10:03:59.327Z,2.60
2019-04-20T10:04:59.729Z,2.50
2019-04-20T10:05:59.269Z,2.50
2019-04-20T10:07:01.105Z,2.60
2019-04-20T10:08:04.320Z,2.50
2019-04-20T10:09:01.911Z,2.60
2019-04-20T10:09:59.805Z,2.50
2019-04-20T10:10:59.420Z,2.50
2019-04-20T10:11:59.708Z,2.40
2019-04-20T10:12:58.517Z,2.40
2019-04-20T10:13:58.623Z,2.40
2019-04-20T10:15:05.135Z,2.40
2019-04-20T10:15:59.752Z,2.40
2019-04-20T10:16:58.460Z,2.60
2019-04-20T10:17:59.562Z,2.50
2019-04-20T10:18:58.761Z,2.60
2019-04-20T10:20:02.547Z,2.60
2019-04-20T10:20:59.894Z,2.30
2019-04-20T10:21:58.422Z,2.30
2019-04-20T10:22:58.529Z,2.40
2019-04-20T10:23:58.907Z,2.50
2019-04-20T10:24:58.376Z,2.50
2019-04-20T10:25:58.657Z,2.40
2019-04-20T10:26:58.821Z,2.20
2019-04-20T10:27:58.326Z,2.50
2019-04-20T10:28:59.401Z,2.50
2019-04-20T10:30:01.126Z,2.50
2019-04-20T10:30:59.324Z,2.70
2019-04-20T10:32:00.529Z,2.70
2019-04-20T10:32:59.476Z,2.30
2019-04-20T10:33:59.524Z,2.30
2019-04-20T10:34:58.955Z,2.60
2019-04-20T10:35:59.437Z,2.40
2019-04-20T10:36:59.582Z,2.60
2019-04-20T10:37:58.216Z,2.20
2019-04-20T10:38:58.294Z,2.20
2019-04-20T10:39:58.549Z,2.30
2019-04-20T10:41:08.256Z,2.30
2019-04-20T10:42:02.201Z,2.30
2019-04-20T10:43:01.031Z,2.40
2019-04-20T10:43:58.743Z,2.70
2019-04-20T10:45:00.351Z,2.60
2019-04-20T10:45:59.019Z,2.40
2019-04-20T10:46:58.786Z,2.40
2019-04-20T10:47:59.030Z,2.60
2019-04-20T10:49:02.806Z,2.60
2019-04-20T10:49:59.087Z,2.20
2019-04-20T10:50:58.913Z,2.30
2019-04-20T10:51:58.086Z,2.20
2019-04-20T10:52:59.525Z,2.50
2019-04-20T10:53:58.366Z,2.30
2019-04-20T10:54:58.659Z,2.40
2019-04-20T10:55:58.018Z,2.20
2019-04-20T10:56:59.344Z,2.40
2019-04-20T10:57:58.019Z,2.10
2019-04-20T10:58:58.030Z,2.20
2019-04-20T10:59:57.974Z,2.50
2019-04-20T11:00:57.973Z,2.40
2019-04-20T11:01:58.143Z,2.10
2019-04-20T11:02:57.941Z,2.20
2019-04-20T11:03:58.754Z,2.30
2019-04-20T11:04:58.842Z,2.30
2019-04-20T11:05:58.564Z,2.50
2019-04-20T11:06:58.652Z,2.20
2019-04-20T11:07:58.790Z,1.90
2019-04-20T11:08:58.520Z,2.30
2019-04-20T11:10:07.868Z,2.40
2019-04-20T11:11:09.318Z,2.60
2019-04-20T11:11:58.849Z,2.10
2019-04-20T11:12:59.045Z,2.30
2019-04-20T11:14:00.748Z,2.20
2019-04-20T11:14:58.827Z,2.20
2019-04-20T11:15:57.789Z,2.30
2019-04-20T11:16:58.430Z,2.40
2019-04-20T11:17:57.777Z,2.10
2019-04-20T11:18:57.841Z,2.30
2019-04-20T11:19:59.107Z,2.00
2019-04-20T11:20:57.756Z,2.20
2019-04-20T11:21:58.572Z,2.20
2019-04-20T11:22:58.109Z,2.00
2019-04-20T11:23:58.402Z,2.00
2019-04-20T11:24:58.542Z,2.20
2019-04-20T11:25:58.051Z,2.20
2019-04-20T11:26:58.312Z,2.10
2019-04-20T11:27:58.550Z,2.10
2019-04-20T11:28:57.957Z,2.10
2019-04-20T11:29:58.240Z,2.20
2019-04-20T11:30:58.524Z,2.20
2019-04-20T11:31:58.179Z,2.30
2019-04-20T11:32:58.093Z,2.30
2019-04-20T11:33:58.335Z,2.30
2019-04-20T11:35:01.040Z,2.30
2019-04-20T11:35:59.118Z,1.90
2019-04-20T11:36:57.573Z,2.10
2019-04-20T11:37:57.592Z,2.10
2019-04-20T11:38:58.691Z,2.30
2019-04-20T11:39:57.532Z,2.20
2019-04-20T11:41:07.402Z,2.30
2019-04-20T11:41:59.476Z,2.20
2019-04-20T11:42:57.591Z,1.90
2019-04-20T11:43:57.876Z,2.20
2019-04-20T11:44:57.482Z,2.00
2019-04-20T11:45:58.459Z,2.00
2019-04-20T11:46:58.647Z,2.10
2019-04-20T11:47:57.806Z,2.00
2019-04-20T11:48:57.441Z,2.20
2019-04-20T11:49:57.672Z,2.30
2019-04-20T11:50:57.921Z,2.10
2019-04-20T11:51:57.406Z,2.00
2019-04-20T11:52:57.403Z,2.00
2019-04-20T11:53:58.542Z,2.20
2019-04-20T11:54:58.137Z,2.30
2019-04-20T11:55:58.503Z,2.20
2019-04-20T11:56:57.480Z,2.00
2019-04-20T11:57:58.286Z,2.20
2019-04-20T11:58:58.758Z,2.20
2019-04-20T11:59:57.310Z,2.50
2019-04-20T12:01:04.250Z,2.20
2019-04-20T12:02:02.531Z,2.40
2019-04-20T12:03:00.554Z,2.30
2019-04-20T12:04:03.965Z,2.10
2019-04-20T12:05:13.203Z,2.40
2019-04-20T12:06:02.730Z,2.40
2019-04-20T12:06:59.065Z,2.30
2019-04-20T12:07:58.569Z,2.30
2019-04-20T12:08:57.199Z,2.40
2019-04-20T12:09:59.380Z,2.40
2019-04-20T12:11:01.695Z,2.10
2019-04-20T12:12:10.453Z,2.00
2019-04-20T12:12:59.495Z,2.00
2019-04-20T12:13:58.556Z,2.20
2019-04-20T12:14:57.243Z,2.20
2019-04-20T12:15:57.130Z,2.10
2019-04-20T12:16:57.587Z,2.10
2019-04-20T12:17:57.823Z,2.00
2019-04-20T12:18:57.094Z,2.00
2019-04-20T12:19:57.751Z,2.00
2019-04-20T12:20:57.072Z,2.00
2019-04-20T12:21:57.955Z,2.10
2019-04-20T12:22:58.123Z,2.20
2019-04-20T12:23:58.232Z,2.20
2019-04-20T12:24:58.206Z,2.20
2019-04-20T12:25:57.033Z,2.00
2019-04-20T12:26:57.004Z,2.10
2019-04-20T12:28:00.140Z,2.00
2019-04-20T12:28:57.987Z,2.20
2019-04-20T12:29:57.538Z,1.90
2019-04-20T12:31:07.770Z,2.20
2019-04-20T12:32:01.324Z,2.10
2019-04-20T12:33:01.894Z,2.10
2019-04-20T12:33:58.088Z,2.20
2019-04-20T12:34:58.171Z,2.00
2019-04-20T12:35:58.260Z,2.10
2019-04-20T12:36:58.247Z,2.00
2019-04-20T12:37:56.997Z,1.90
2019-04-20T12:38:57.235Z,2.20
2019-04-20T12:39:57.444Z,2.10
2019-04-20T12:40:58.149Z,2.10
2019-04-20T12:42:00.496Z,1.90
2019-04-20T12:42:59.118Z,2.20
2019-04-20T12:43:56.827Z,2.20
2019-04-20T12:44:57.787Z,2.10
2019-04-20T12:45:57.990Z,2.00
2019-04-20T12:46:57.184Z,2.00
2019-04-20T12:47:57.566Z,1.80
2019-04-20T12:48:57.688Z,1.90
2019-04-20T12:49:56.748Z,2.20
2019-04-20T12:50:57.510Z,2.10
2019-04-20T12:52:00.284Z,2.20
2019-04-20T12:52:58.811Z,2.20
2019-04-20T12:53:56.705Z,1.90
2019-04-20T12:54:59.635Z,2.10
2019-04-20T12:55:56.829Z,2.20
2019-04-20T12:56:56.670Z,2.00
2019-04-20T12:57:56.759Z,2.00
2019-04-20T12:58:57.782Z,2.20
2019-04-20T12:59:57.302Z,1.90
2019-04-20T13:00:56.629Z,2.00
2019-04-20T13:01:57.513Z,2.10
2019-04-20T13:02:56.601Z,2.20
2019-04-20T13:03:57.384Z,2.00
2019-04-20T13:04:57.496Z,1.90
2019-04-20T13:05:56.577Z,2.20
2019-04-20T13:06:57.552Z,2.00
2019-04-20T13:08:00.776Z,2.10
2019-04-20T13:08:58.943Z,1.90
2019-04-20T13:09:56.899Z,2.00
2019-04-20T13:10:56.507Z,2.10
2019-04-20T13:12:00.022Z,2.00
2019-04-20T13:12:58.485Z,1.80
2019-04-20T13:13:56.644Z,1.80
2019-04-20T13:14:56.492Z,2.00
2019-04-20T13:15:56.471Z,1.90
2019-04-20T13:16:56.911Z,2.00
2019-04-20T13:17:57.028Z,2.10
2019-04-20T13:18:57.246Z,1.90
2019-04-20T13:19:57.466Z,2.10
2019-04-20T13:20:58.158Z,2.10
2019-04-20T13:21:56.867Z,1.80
2019-04-20T13:22:57.224Z,1.90
2019-04-20T13:23:56.619Z,2.00
2019-04-20T13:24:57.050Z,2.00
2019-04-20T13:25:57.105Z,1.90
2019-04-20T13:26:56.348Z,2.10
2019-04-20T13:27:56.927Z,2.00
2019-04-20T13:28:57.112Z,1.80
2019-04-20T13:29:56.313Z,1.80
2019-04-20T13:30:57.759Z,2.10
2019-04-20T13:31:57.174Z,2.00
2019-04-20T13:32:57.290Z,1.90
2019-04-20T13:33:57.225Z,2.10
2019-04-20T13:34:56.356Z,2.00
2019-04-20T13:35:56.428Z,2.30
2019-04-20T13:36:56.254Z,1.80
2019-04-20T13:37:56.276Z,2.20
2019-04-20T13:38:56.480Z,2.10
2019-04-20T13:39:56.643Z,2.10
2019-04-20T13:40:56.193Z,2.10
2019-04-20T13:42:07.841Z,2.20